Time;durP1;ratioP1;P1;durP2;ratioP2;P2;SDS_P1;SDS_P2;PMS_P1;PMS_P2;Temp;Humidity;BMP_temperature;BMP_pressure;BME280_temperature;BME280_humidity;BME280_pressure;Samples;Min_cycle;Max_cycle;Signal;HPM_P1;HPM_P2
2023/01/05 00:00:52;;;;;;;3.43;1.33;;;;;;;19.08;55.52;100904.66;5073130;28;20429;-63
2023/01/05 00:03:17;;;;;;;2.87;1.37;;;;;;;19.06;55.82;100902.16;5074569;28;20425;-63
2023/01/05 00:05:42;;;;;;;6.43;1.50;;;;;;;19.04;55.67;100892.28;5074310;28;20211;-63
2023/01/05 00:08:08;;;;;;;6.00;1.53;;;;;;;19.05;55.69;100893.94;5088344;28;20178;-63
2023/01/05 00:24:26;;;;;;;5.90;1.57;;;;;;;19.05;55.53;100894.78;5077545;28;20899;-63
2023/01/05 00:26:51;;;;;;;6.17;1.20;;;;;;;19.06;55.73;100893.56;5080413;28;20445;-63
2023/01/05 00:29:17;;;;;;;4.90;1.50;;;;;;;19.03;55.78;100897.19;5071389;28;20571;-63
2023/01/05 00:31:42;;;;;;;3.60;1.43;;;;;;;19.06;55.66;100895.63;5061555;28;20235;-63
2023/01/05 00:34:08;;;;;;;5.53;1.53;;;;;;;19.04;55.89;100886.56;5097553;28;20194;-63
2023/01/05 00:36:33;;;;;;;4.30;1.60;;;;;;;19.05;55.54;100889.06;5090654;28;20224;-63
2023/01/05 00:38:58;;;;;;;5.00;1.57;;;;;;;19.05;55.63;100880.47;5082671;28;20684;-63
2023/01/05 00:41:24;;;;;;;4.93;1.43;;;;;;;19.05;55.82;100883.31;5072206;28;20185;-63
2023/01/05 00:43:49;;;;;;;3.10;1.30;;;;;;;19.02;55.77;100875.47;5074711;28;20226;-63
2023/01/05 00:46:15;;;;;;;3.00;1.33;;;;;;;19.03;55.88;100865.72;5091627;28;20167;-63
2023/01/05 00:48:40;;;;;;;3.20;1.50;;;;;;;19.03;55.83;100874.28;5092430;28;20564;-63
2023/01/05 00:51:05;;;;;;;7.83;1.30;;;;;;;19.06;55.74;100876.41;5090602;28;20219;-63
2023/01/05 00:53:31;;;;;;;10.93;2.20;;;;;;;19.03;55.63;100868.56;5091134;28;20178;-63
2023/01/05 00:55:57;;;;;;;3.87;1.50;;;;;;;19.05;55.68;100871.88;5087139;28;20186;-63
2023/01/05 00:58:22;;;;;;;4.43;1.40;;;;;;;19.05;55.74;100860.44;5091180;28;20190;-63
2023/01/05 01:00:48;;;;;;;5.03;1.63;;;;;;;19.06;55.53;100872.72;5071137;28;20968;-63
2023/01/05 01:03:13;;;;;;;4.97;1.90;;;;;;;19.05;55.65;100869.03;5086227;28;20703;-63
2023/01/05 01:05:38;;;;;;;2.27;1.07;;;;;;;19.05;55.86;100868.19;5071507;28;20199;-63
2023/01/05 01:08:04;;;;;;;4.37;1.80;;;;;;;19.05;55.60;100871.88;5071839;28;20167;-63
2023/01/05 01:10:29;;;;;;;3.00;1.43;;;;;;;19.02;55.86;100872.59;5073896;28;20202;-63
2023/01/05 01:12:55;;;;;;;5.00;2.17;;;;;;;19.03;55.79;100871.44;5071183;28;20178;-63
2023/01/05 01:15:20;;;;;;;4.73;1.30;;;;;;;19.02;55.79;100881.19;5071849;28;20159;-63
2023/01/05 01:17:46;;;;;;;5.23;1.90;;;;;;;18.99;55.83;100884.81;5071480;28;20172;-63
2023/01/05 01:20:11;;;;;;;3.90;1.47;;;;;;;19.02;55.78;100880.38;5073310;28;20186;-63
2023/01/05 01:22:36;;;;;;;4.67;1.53;;;;;;;19.00;55.93;100885.63;5070710;28;20190;-63
2023/01/05 01:25:02;;;;;;;4.77;1.23;;;;;;;19.02;55.85;100872.59;5072693;28;20206;-63
2023/01/05 01:27:31;;;;;;;5.47;1.50;;;;;;;19.04;55.82;100878.81;5070582;28;20186;-63
2023/01/05 01:29:57;;;;;;;8.40;1.73;;;;;;;19.03;55.70;100870.59;5070712;28;20450;-63
2023/01/05 01:32:23;;;;;;;6.00;1.53;;;;;;;19.03;55.79;100874.28;5071101;28;20414;-63
2023/01/05 01:34:49;;;;;;;3.23;1.40;;;;;;;19.01;55.67;100865.22;5063068;28;20189;-63
2023/01/05 01:37:15;;;;;;;3.30;1.33;;;;;;;19.00;55.80;100852.13;5053044;28;20405;-63
2023/01/05 01:39:40;;;;;;;3.30;1.43;;;;;;;19.03;55.94;100859.16;5073450;28;20182;-63
2023/01/05 01:42:05;;;;;;;2.40;1.00;;;;;;;19.02;56.07;100846.84;5071278;28;20269;-63
2023/01/05 01:44:46;;;;;;;4.93;1.53;;;;;;;19.01;55.88;100859.50;5053384;28;20634;-63
2023/01/05 01:47:30;;;;;;;1.80;0.90;;;;;;;19.00;55.83;100842.69;5071200;28;20175;-63
2023/01/05 01:49:57;;;;;;;4.20;1.50;;;;;;;19.02;55.88;100866.88;5073556;28;20889;-63
2023/01/05 01:52:22;;;;;;;3.20;1.17;;;;;;;19.02;55.70;100854.63;5070204;28;20398;-63
2023/01/05 01:54:49;;;;;;;4.70;1.57;;;;;;;19.02;55.78;100849.72;5070030;28;21169;-63
2023/01/05 01:57:14;;;;;;;3.13;1.13;;;;;;;18.99;55.58;100850.47;5052076;28;20170;-63
2023/01/05 01:59:40;;;;;;;4.77;1.50;;;;;;;19.00;55.69;100857.00;5072185;28;20437;-63
2023/01/05 02:02:05;;;;;;;3.67;1.30;;;;;;;18.99;56.01;100846.78;5036419;28;20183;-63
2023/01/05 02:04:30;;;;;;;3.70;1.10;;;;;;;19.00;56.09;100840.69;5085440;28;20798;-63
2023/01/05 02:06:56;;;;;;;4.87;1.60;;;;;;;19.00;55.92;100836.97;5089752;28;20652;-63
2023/01/05 02:09:21;;;;;;;3.83;1.03;;;;;;;18.99;55.82;100839.03;5054642;28;20187;-63
2023/01/05 02:12:02;;;;;;;3.33;1.33;;;;;;;18.97;55.91;100829.97;5071227;28;20171;-63
2023/01/05 02:14:59;;;;;;;3.70;1.27;;;;;;;18.99;55.95;100827.59;5073152;28;20187;-63
2023/01/05 02:18:03;;;;;;;2.40;0.87;;;;;;;18.98;56.02;100820.22;5092657;28;20476;-63
2023/01/05 02:20:58;;;;;;;2.67;1.00;;;;;;;18.99;55.78;100833.31;5091028;28;20423;-63
2023/01/05 02:23:29;;;;;;;3.53;1.33;;;;;;;18.98;56.01;100842.25;5062173;28;20474;-63
2023/01/05 02:26:32;;;;;;;2.70;1.20;;;;;;;19.00;56.01;100837.81;5075036;28;20535;-63
2023/01/05 02:29:13;;;;;;;6.07;1.20;;;;;;;18.99;56.22;100843.91;5056379;28;20522;-63
2023/01/05 02:31:51;;;;;;;4.00;1.40;;;;;;;18.95;55.98;100843.81;5090557;28;20802;-63
2023/01/05 02:34:32;;;;;;;3.07;1.30;;;;;;;18.96;55.96;100834.03;5078134;28;20862;-63
2023/01/05 02:37:20;;;;;;;3.00;1.00;;;;;;;18.97;56.00;100835.69;5075990;28;20488;-63
2023/01/05 02:39:55;;;;;;;2.50;1.10;;;;;;;18.92;56.32;100829.44;5058005;28;20421;-63
2023/01/05 02:42:25;;;;;;;3.97;1.77;;;;;;;18.98;55.97;100823.06;5040046;28;20464;-63
2023/01/05 02:44:50;;;;;;;3.90;1.30;;;;;;;18.98;56.02;100822.22;5046802;28;20477;-63
2023/01/05 02:47:26;;;;;;;4.83;1.10;;;;;;;18.96;56.08;100825.44;5094586;28;20511;-63
2023/01/05 02:50:00;;;;;;;2.83;1.10;;;;;;;18.95;56.10;100820.94;5081255;28;20752;-63
2023/01/05 02:52:25;;;;;;;3.07;1.43;;;;;;;18.97;56.16;100801.34;5074457;28;20433;-63
2023/01/05 02:54:53;;;;;;;4.50;1.10;;;;;;;18.93;56.08;100811.91;5040424;28;20452;-63
2023/01/05 02:57:45;;;;;;;3.40;1.33;;;;;;;18.93;56.10;100803.31;5056414;28;20200;-63
2023/01/05 03:00:08;;;;;;;3.87;1.40;;;;;;;18.92;55.79;100804.50;5058904;28;20900;-63
2023/01/05 03:02:33;;;;;;;2.00;1.10;;;;;;;18.94;55.85;100799.25;5071585;28;20435;-63
2023/01/05 03:05:10;;;;;;;3.40;1.07;;;;;;;18.92;55.87;100798.78;5092293;28;20455;-63
2023/01/05 03:07:37;;;;;;;4.53;1.00;;;;;;;18.94;56.11;100813.56;5076128;28;20287;-63
2023/01/05 03:13:39;;;;;;;2.80;1.07;;;;;;;18.97;56.40;100797.69;5071409;28;20546;-63
2023/01/05 03:15:32;;;;;;;4.33;1.30;;;;;;;18.97;56.07;100801.34;5045723;28;20487;-63
2023/01/05 03:18:03;;;;;;;2.80;1.30;;;;;;;18.95;55.94;100803.78;5074092;28;20420;-63
2023/01/05 03:20:30;;;;;;;3.00;1.37;;;;;;;18.95;56.00;100806.63;5076038;28;20166;-63
2023/01/05 03:37:12;;;;;;;2.00;0.80;;;;;;;18.95;56.11;100811.50;5057636;28;21043;-63
2023/01/05 03:39:40;;;;;;;3.17;1.10;;;;;;;18.93;56.16;100811.06;5054804;28;20409;-63
2023/01/05 03:42:06;;;;;;;6.67;1.40;;;;;;;18.93;56.04;100813.94;5037644;28;20406;-63
2023/01/05 03:44:35;;;;;;;3.33;1.13;;;;;;;18.90;56.28;100821.22;5040163;28;20455;-63
2023/01/05 03:47:00;;;;;;;3.20;1.20;;;;;;;18.94;56.21;100816.41;5073377;28;20412;-63
2023/01/05 03:49:26;;;;;;;4.83;1.20;;;;;;;18.89;55.96;100813.84;5072894;28;20420;-63
2023/01/05 03:51:51;;;;;;;3.27;1.10;;;;;;;18.92;56.20;100807.34;5072579;28;20687;-63
2023/01/05 03:54:17;;;;;;;2.13;0.80;;;;;;;18.91;56.10;100807.75;5075780;28;20183;-63
2023/01/05 03:56:42;;;;;;;3.87;1.23;;;;;;;18.90;56.21;100811.78;5072116;28;20471;-63
2023/01/05 03:59:07;;;;;;;4.30;1.27;;;;;;;18.93;56.01;100822.50;5084030;28;20182;-63
2023/01/05 04:01:33;;;;;;;2.73;1.13;;;;;;;18.88;56.06;100823.63;5091851;28;20159;-63
2023/01/05 04:03:58;;;;;;;3.00;1.10;;;;;;;18.90;56.16;100832.66;5089624;28;20228;-63
2023/01/05 04:06:24;;;;;;;4.17;1.30;;;;;;;18.92;56.13;100835.97;5091791;28;20614;-63
2023/01/05 04:08:49;;;;;;;3.00;1.00;;;;;;;18.89;55.96;100838.75;5074472;28;20187;-63
2023/01/05 04:11:16;;;;;;;5.60;1.80;;;;;;;18.87;56.25;100841.16;5071506;28;20207;-63
2023/01/05 04:13:42;;;;;;;3.10;0.90;;;;;;;18.88;56.06;100846.53;5074789;28;20175;-63
2023/01/05 04:16:07;;;;;;;2.10;1.03;;;;;;;18.87;55.97;100836.25;5072947;28;20482;-63
2023/01/05 04:18:33;;;;;;;4.13;1.70;;;;;;;18.88;56.10;100835.06;5056130;28;20207;-63
2023/01/05 04:20:58;;;;;;;2.27;0.93;;;;;;;18.93;56.09;100839.69;5076822;28;20529;-63
2023/01/05 04:23:23;;;;;;;6.47;1.20;;;;;;;18.89;56.23;100827.31;5104024;28;20180;-63
2023/01/05 04:25:49;;;;;;;3.23;1.30;;;;;;;18.88;56.12;100832.22;5112827;28;20193;-63
2023/01/05 04:28:14;;;;;;;3.63;1.40;;;;;;;18.87;56.33;100841.16;5099964;28;20200;-63
2023/01/05 04:30:43;;;;;;;4.50;1.57;;;;;;;18.88;56.07;100852.25;5054606;28;20276;-63
2023/01/05 04:33:08;;;;;;;3.13;1.13;;;;;;;18.88;56.21;100846.53;5072558;28;20573;-63
2023/01/05 04:35:33;;;;;;;4.00;0.93;;;;;;;18.90;56.18;100854.72;5075467;28;20442;-63
2023/01/05 04:37:59;;;;;;;1.70;0.80;;;;;;;18.89;55.97;100864.50;5085981;28;20174;-63
2023/01/05 04:40:24;;;;;;;4.73;1.13;;;;;;;18.91;56.03;100871.50;5083918;28;20179;-63
2023/01/05 04:42:50;;;;;;;2.50;1.00;;;;;;;18.91;56.25;100876.44;5071988;28;20225;-63
2023/01/05 04:45:15;;;;;;;2.73;1.03;;;;;;;18.89;56.26;100879.66;5071263;28;20167;-63
2023/01/05 04:47:41;;;;;;;2.87;0.90;;;;;;;18.88;56.24;100878.00;5074056;28;20232;-63
2023/01/05 04:50:07;;;;;;;3.67;1.00;;;;;;;18.87;56.05;100882.03;5070430;28;20616;-63
2023/01/05 04:52:32;;;;;;;1.50;0.80;;;;;;;18.89;56.27;100878.81;5070394;28;20287;-63
2023/01/05 04:54:58;;;;;;;2.77;1.20;;;;;;;18.91;56.29;100880.09;5072247;28;20436;-63
2023/01/05 04:57:23;;;;;;;2.67;1.03;;;;;;;18.87;56.22;100884.88;5070220;28;20251;-63
2023/01/05 04:59:49;;;;;;;4.60;1.00;;;;;;;18.93;55.99;100885.44;5086511;28;20158;-63
2023/01/05 05:02:14;;;;;;;2.87;1.53;;;;;;;18.90;56.13;100892.75;5077835;28;20183;-63
2023/01/05 05:04:39;;;;;;;2.03;0.80;;;;;;;18.88;56.25;100895.16;5087427;28;20209;-63
2023/01/05 05:07:05;;;;;;;3.90;0.97;;;;;;;18.93;56.14;100905.47;5092059;28;20166;-63
2023/01/05 05:09:31;;;;;;;3.37;1.00;;;;;;;18.92;56.17;100918.94;5082220;28;20183;-63
2023/01/05 05:11:56;;;;;;;2.60;0.80;;;;;;;18.91;56.14;100914.44;5071684;28;20182;-63
2023/01/05 05:14:21;;;;;;;2.87;1.00;;;;;;;18.91;56.17;100905.84;5071413;28;20844;-63
2023/01/05 05:16:47;;;;;;;2.50;1.10;;;;;;;18.90;56.08;100900.50;5071665;28;20162;-63
2023/01/05 05:19:12;;;;;;;4.40;1.20;;;;;;;18.91;56.33;100902.16;5080862;28;20187;-63
2023/01/05 05:21:38;;;;;;;2.67;0.90;;;;;;;18.92;55.97;100904.63;5073680;28;20178;-63
2023/01/05 05:24:03;;;;;;;3.20;0.87;;;;;;;18.91;56.18;100910.75;5071599;28;20587;-63
2023/01/05 05:26:29;;;;;;;4.30;1.13;;;;;;;18.91;56.21;100917.28;5088259;28;20189;-63
2023/01/05 05:28:57;;;;;;;4.90;0.70;;;;;;;18.90;56.30;100929.94;5091656;28;20583;-63
2023/01/05 05:31:22;;;;;;;2.70;1.03;;;;;;;18.88;56.26;100917.19;5087386;28;20301;-63
2023/01/05 05:33:48;;;;;;;1.80;0.80;;;;;;;18.90;56.21;100918.50;5080104;28;20789;-63
2023/01/05 05:36:14;;;;;;;2.60;1.00;;;;;;;18.90;56.21;100932.81;5071550;28;20179;-63
2023/01/05 05:38:39;;;;;;;3.00;1.07;;;;;;;18.90;56.13;100927.06;5077865;28;20566;-63
2023/01/05 05:41:04;;;;;;;3.33;0.90;;;;;;;18.92;56.17;100923.84;5080735;28;20179;-63
2023/01/05 05:43:30;;;;;;;4.70;1.20;;;;;;;18.94;56.00;100938.63;5071216;28;20226;-63
2023/01/05 05:45:55;;;;;;;5.00;1.10;;;;;;;18.92;56.33;100952.47;5073453;28;20596;-63
2023/01/05 05:48:21;;;;;;;4.40;1.40;;;;;;;18.94;56.24;100944.34;5052757;28;20191;-63
2023/01/05 05:50:46;;;;;;;4.70;1.10;;;;;;;18.92;56.34;100955.31;5070957;28;20676;-63
2023/01/05 05:53:12;;;;;;;4.60;1.70;;;;;;;18.90;56.15;100937.69;5072883;28;20187;-63
2023/01/05 05:55:37;;;;;;;3.13;1.03;;;;;;;18.92;55.97;100941.84;5070299;28;20182;-63
2023/01/05 05:58:02;;;;;;;2.50;0.90;;;;;;;18.97;56.13;100937.88;5072418;28;20186;-63
2023/01/05 06:00:28;;;;;;;3.53;1.00;;;;;;;18.94;56.11;100945.19;5071098;28;20201;-63
2023/01/05 06:02:53;;;;;;;2.40;0.90;;;;;;;18.90;56.24;100949.13;5072718;28;20190;-63
2023/01/05 06:05:19;;;;;;;4.13;1.30;;;;;;;18.91;56.12;100945.91;5090679;28;20197;-63
2023/01/05 06:07:44;;;;;;;1.80;0.87;;;;;;;18.91;56.15;100957.34;5079146;28;20194;-63
2023/01/05 06:10:09;;;;;;;2.10;0.90;;;;;;;18.88;56.11;100949.53;5071082;28;20191;-63
2023/01/05 06:12:35;;;;;;;3.07;0.90;;;;;;;18.88;56.20;100958.09;5073409;28;20638;-63
2023/01/05 06:15:00;;;;;;;2.77;0.90;;;;;;;18.91;56.20;100965.94;5088771;28;20170;-63
2023/01/05 06:17:26;;;;;;;2.23;0.77;;;;;;;18.91;56.15;100968.78;5091111;28;20611;-63
2023/01/05 06:19:51;;;;;;;2.10;1.07;;;;;;;18.92;56.38;100970.44;5083958;28;20179;-63
2023/01/05 06:22:17;;;;;;;3.73;0.90;;;;;;;18.92;56.21;100961.88;5070903;28;20171;-63
2023/01/05 06:24:42;;;;;;;2.23;1.00;;;;;;;18.95;55.98;100969.72;5073298;28;20249;-63
2023/01/05 06:27:07;;;;;;;3.40;1.00;;;;;;;18.94;55.99;100968.06;5057994;28;20171;-63
2023/01/05 06:29:33;;;;;;;2.43;1.10;;;;;;;18.91;56.08;100963.06;5052891;28;20179;-63
2023/01/05 06:31:58;;;;;;;2.47;0.90;;;;;;;18.93;56.21;100966.41;5093986;28;20246;-63
2023/01/05 06:34:24;;;;;;;3.23;1.20;;;;;;;18.95;56.24;100975.44;5077808;28;20696;-63
2023/01/05 06:36:49;;;;;;;2.53;1.03;;;;;;;18.94;56.07;100973.78;5073592;28;20186;-63
2023/01/05 06:39:14;;;;;;;2.07;0.80;;;;;;;18.91;55.93;100974.50;5089634;28;20212;-63
2023/01/05 06:41:40;;;;;;;3.00;0.80;;;;;;;18.93;55.95;100975.00;5090906;28;20167;-63
2023/01/05 06:44:05;;;;;;;3.13;1.10;;;;;;;18.93;55.96;100977.84;5076130;28;20223;-63
2023/01/05 06:46:31;;;;;;;3.87;1.10;;;;;;;18.93;56.01;100974.16;5070853;28;20171;-63
2023/01/05 06:48:56;;;;;;;1.73;0.70;;;;;;;18.94;56.14;100987.25;5074366;28;20191;-63
2023/01/05 06:51:22;;;;;;;2.33;1.10;;;;;;;18.93;56.08;100980.72;5090588;28;20191;-63
2023/01/05 06:53:47;;;;;;;3.67;1.30;;;;;;;18.93;56.36;100991.31;5080809;28;20700;-63
2023/01/05 06:56:13;;;;;;;2.70;1.10;;;;;;;18.92;56.18;100999.06;5109359;28;20243;-63
2023/01/05 06:58:38;;;;;;;2.63;0.90;;;;;;;18.92;56.00;101004.78;5110441;28;20170;-63
2023/01/05 07:01:04;;;;;;;1.93;0.90;;;;;;;18.97;56.22;101010.25;5110977;28;20162;-63
2023/01/05 07:03:29;;;;;;;2.83;1.10;;;;;;;18.95;56.07;101009.78;5069059;28;20650;-63
2023/01/05 07:05:54;;;;;;;2.80;1.07;;;;;;;18.93;56.05;101017.91;5070783;28;20210;-63
2023/01/05 07:08:20;;;;;;;2.40;0.93;;;;;;;18.95;55.94;101020.38;5074512;28;20186;-63
2023/01/05 07:10:45;;;;;;;5.23;0.93;;;;;;;18.94;56.15;101016.72;5074022;28;20206;-63
2023/01/05 07:13:11;;;;;;;3.17;1.37;;;;;;;18.95;56.15;101017.53;5073423;28;20183;-63
2023/01/05 07:15:36;;;;;;;2.77;0.80;;;;;;;18.96;56.00;101013.50;5075330;28;20183;-63
2023/01/05 07:18:01;;;;;;;1.77;0.80;;;;;;;18.95;55.89;101015.50;5072069;28;20209;-63
2023/01/05 07:20:27;;;;;;;3.07;1.30;;;;;;;18.95;55.98;101028.97;5074352;28;20561;-63
2023/01/05 07:22:52;;;;;;;1.90;0.77;;;;;;;18.96;56.17;101036.38;5072265;28;20186;-63
2023/01/05 07:25:18;;;;;;;2.03;0.83;;;;;;;18.97;56.21;101035.19;5072032;28;20237;-63
2023/01/05 07:27:43;;;;;;;3.10;1.70;;;;;;;18.96;56.16;101036.38;5073867;28;20609;-63
2023/01/05 07:30:09;;;;;;;3.40;0.73;;;;;;;18.95;56.08;101031.84;5072250;28;20207;-63
2023/01/05 07:32:34;;;;;;;5.50;0.93;;;;;;;18.96;55.87;101034.34;5075971;28;20273;-63
2023/01/05 07:35:00;;;;;;;2.20;1.03;;;;;;;18.96;56.03;101033.53;5071902;28;21199;-63
2023/01/05 07:37:25;;;;;;;2.00;0.90;;;;;;;18.93;56.20;101035.09;5070804;28;20175;-63
2023/01/05 07:39:51;;;;;;;3.30;1.07;;;;;;;18.96;56.04;101040.06;5072427;28;20183;-63
2023/01/05 07:42:16;;;;;;;2.70;1.10;;;;;;;18.99;56.24;101047.06;5074985;28;20748;-63
2023/01/05 07:44:44;;;;;;;1.80;1.00;;;;;;;18.94;56.15;101042.47;5072755;28;20192;-63
2023/01/05 07:47:09;;;;;;;3.30;1.10;;;;;;;18.95;55.88;101046.97;5078103;28;20436;-63
2023/01/05 07:49:35;;;;;;;2.03;0.80;;;;;;;18.96;56.12;101050.69;5092921;28;20439;-63
2023/01/05 07:52:00;;;;;;;1.97;0.63;;;;;;;18.98;56.11;101060.56;5092714;28;20626;-63
2023/01/05 07:54:26;;;;;;;2.13;1.00;;;;;;;18.97;56.01;101063.78;5087716;28;20186;-63
2023/01/05 07:56:51;;;;;;;2.60;0.87;;;;;;;18.97;56.01;101064.59;5093026;28;20186;-63
2023/01/05 07:59:17;;;;;;;1.83;0.70;;;;;;;18.97;56.09;101058.88;5085322;28;20187;-63
2023/01/05 08:01:42;;;;;;;2.37;0.80;;;;;;;18.92;56.31;101067.72;5073334;28;20163;-63
2023/01/05 08:04:08;;;;;;;2.90;1.00;;;;;;;18.96;55.85;101070.72;5083021;28;20255;-63
2023/01/05 08:06:33;;;;;;;2.90;0.90;;;;;;;18.97;55.97;101067.47;5075526;28;20187;-63
2023/01/05 08:10:27;;;;;;;3.83;0.90;;;;;;;18.97;56.28;101076.06;5072821;28;20183;-63
2023/01/05 08:11:44;;;;;;;2.00;0.80;;;;;;;18.98;55.90;101077.75;5074550;28;20233;-63
2023/01/05 08:14:10;;;;;;;3.67;1.33;;;;;;;18.98;55.80;101068.31;5072482;28;20426;-63
2023/01/05 08:16:35;;;;;;;2.57;0.90;;;;;;;18.94;55.87;101067.38;5072914;28;20160;-63
2023/01/05 08:19:00;;;;;;;3.70;0.93;;;;;;;18.98;56.04;101066.28;5072814;28;20174;-63
2023/01/05 08:21:26;;;;;;;4.60;1.30;;;;;;;18.96;55.90;101067.84;5075536;28;20203;-63
2023/01/05 08:23:54;;;;;;;2.70;0.83;;;;;;;18.97;55.92;101073.19;5105493;28;20628;-63
2023/01/05 08:26:22;;;;;;;1.80;0.73;;;;;;;18.99;55.83;101073.69;5105042;28;20190;-63
2023/01/05 08:28:47;;;;;;;2.20;0.80;;;;;;;18.99;55.84;101072.84;5088806;28;20474;-63
2023/01/05 08:31:17;;;;;;;4.87;1.20;;;;;;;19.00;56.00;101075.34;5072708;28;20477;-63
2023/01/05 08:33:42;;;;;;;2.67;1.10;;;;;;;18.99;55.92;101067.94;5079272;28;20197;-63
2023/01/05 08:36:09;;;;;;;4.17;1.10;;;;;;;18.99;55.78;101087.97;5088936;28;20980;-63
2023/01/05 08:38:34;;;;;;;2.67;1.00;;;;;;;19.01;55.81;101094.16;5092522;28;20518;-63
2023/01/05 08:41:00;;;;;;;2.90;0.97;;;;;;;19.01;55.73;101090.50;5087065;28;20615;-63
2023/01/05 08:43:25;;;;;;;4.90;1.03;;;;;;;19.00;55.91;101097.38;5071676;28;20219;-63
2023/01/05 08:45:51;;;;;;;2.00;0.70;;;;;;;18.99;56.02;101093.72;5071991;28;20657;-63
2023/01/05 08:48:16;;;;;;;2.17;0.90;;;;;;;19.00;55.99;101098.22;5073880;28;20191;-63
2023/01/05 08:50:42;;;;;;;2.93;0.93;;;;;;;18.98;56.09;101106.34;5071546;28;20199;-63
2023/01/05 08:53:07;;;;;;;2.50;0.80;;;;;;;18.98;55.91;101103.50;5074570;28;20183;-63
2023/01/05 08:55:32;;;;;;;1.83;0.80;;;;;;;19.03;55.75;101105.25;5071830;28;20163;-63
2023/01/05 08:57:58;;;;;;;2.73;1.00;;;;;;;19.00;55.88;101109.69;5071905;28;20809;-63
2023/01/05 09:00:23;;;;;;;1.90;0.80;;;;;;;19.02;55.76;101109.31;5093427;28;20775;-63
2023/01/05 09:02:49;;;;;;;2.30;1.00;;;;;;;19.00;55.77;101115.41;5073253;28;20194;-63
2023/01/05 09:05:14;;;;;;;1.70;0.80;;;;;;;19.02;55.90;101120.75;5087269;28;20197;-63
2023/01/05 09:07:40;;;;;;;2.00;0.80;;;;;;;18.98;56.00;101126.38;5070888;28;20168;-63
2023/01/05 09:10:06;;;;;;;2.70;0.93;;;;;;;19.01;56.16;101133.41;5070737;28;20699;-63
2023/01/05 09:12:34;;;;;;;2.70;0.97;;;;;;;19.06;55.71;101133.16;5073691;28;20256;-63
2023/01/05 09:14:59;;;;;;;3.30;0.83;;;;;;;19.02;55.87;101141.59;5070857;28;20409;-63
2023/01/05 09:17:25;;;;;;;2.10;1.00;;;;;;;19.04;55.59;101142.09;5073640;28;20433;-63
2023/01/05 09:19:50;;;;;;;2.80;0.80;;;;;;;19.00;56.00;101138.28;5053075;28;20228;-63
2023/01/05 09:22:16;;;;;;;2.00;0.80;;;;;;;18.97;55.83;101139.00;5071777;28;20171;-63
2023/01/05 09:24:41;;;;;;;1.77;0.90;;;;;;;19.01;56.02;101144.88;5073196;28;20179;-63
2023/01/05 09:27:07;;;;;;;1.90;0.80;;;;;;;19.01;55.61;101134.22;5070802;28;20179;-63
2023/01/05 09:29:32;;;;;;;2.55;0.90;;;;;;;19.01;55.86;101139.94;5071375;28;20175;-63
2023/01/05 09:31:58;;;;;;;1.97;0.90;;;;;;;19.01;55.71;101136.28;5055575;28;20187;-63
2023/01/05 09:34:23;;;;;;;2.80;0.90;;;;;;;19.00;55.75;101146.03;5071236;28;20217;-63
2023/01/05 09:36:48;;;;;;;2.73;0.87;;;;;;;18.98;56.07;101148.44;5071455;28;20221;-63
2023/01/05 09:39:14;;;;;;;1.50;0.73;;;;;;;18.99;55.88;101148.06;5073324;28;20273;-63
2023/01/05 09:41:45;;;;;;;2.30;0.90;;;;;;;19.00;55.85;101157.47;5070988;28;20178;-63
2023/01/05 09:44:20;;;;;;;2.17;0.90;;;;;;;19.00;55.84;101158.31;5038711;28;20262;-63
2023/01/05 09:46:46;;;;;;;2.73;0.83;;;;;;;18.99;56.28;101153.81;5053247;28;20429;-63
2023/01/05 09:49:15;;;;;;;2.27;0.80;;;;;;;18.99;56.11;101159.53;5071234;28;20424;-63
2023/01/05 09:51:40;;;;;;;3.37;1.33;;;;;;;18.99;55.73;101162.38;5073059;28;20694;-63
2023/01/05 09:54:07;;;;;;;2.27;0.90;;;;;;;18.99;55.83;101155.81;5071173;28;20416;-63
2023/01/05 09:56:35;;;;;;;2.77;1.20;;;;;;;18.99;55.96;101148.06;5041258;28;20195;-63
2023/01/05 09:59:34;;;;;;;2.50;1.07;;;;;;;19.00;55.85;101151.75;5069530;28;20765;-63
2023/01/05 10:02:01;;;;;;;3.20;1.27;;;;;;;19.00;55.89;101152.59;5049884;28;20448;-63
2023/01/05 10:04:28;;;;;;;2.20;0.90;;;;;;;19.04;55.74;101158.44;5065826;28;20808;-63
2023/01/05 10:07:02;;;;;;;1.97;0.80;;;;;;;19.01;55.86;101157.13;5069799;28;20485;-63
2023/01/05 10:09:30;;;;;;;1.70;0.70;;;;;;;19.00;55.87;101161.19;5039072;28;20524;-63
2023/01/05 10:15:08;;;;;;;2.10;0.90;;;;;;;19.04;55.78;101139.25;5070365;28;20416;-63
2023/01/05 10:17:38;;;;;;;2.10;0.90;;;;;;;19.01;55.70;101139.94;5077105;28;20436;-63
2023/01/05 10:20:29;;;;;;;3.87;1.03;;;;;;;19.02;55.94;101135.06;5100507;28;20436;-63
2023/01/05 10:23:06;;;;;;;2.33;0.97;;;;;;;19.02;55.92;101133.03;5084847;28;20433;-63
2023/01/05 10:25:39;;;;;;;2.00;0.93;;;;;;;19.03;56.09;101125.28;5090436;28;20411;-63
2023/01/05 10:28:29;;;;;;;2.63;0.90;;;;;;;19.02;55.80;101123.63;5071051;28;20413;-63
2023/01/05 10:31:01;;;;;;;3.00;1.00;;;;;;;19.01;56.04;101119.91;5099820;28;20832;-63
2023/01/05 10:33:47;;;;;;;2.07;0.97;;;;;;;19.05;55.68;101129.44;5084318;28;20428;-63
2023/01/05 10:36:18;;;;;;;2.57;0.90;;;;;;;19.03;56.07;101117.53;5072754;28;20416;-63
2023/01/05 10:39:04;;;;;;;2.13;0.80;;;;;;;19.05;55.66;101112.28;5063075;28;20429;-63
2023/01/05 10:41:56;;;;;;;6.03;0.90;;;;;;;19.03;55.50;101114.69;5070405;28;20457;-63
2023/01/05 10:44:28;;;;;;;2.33;0.70;;;;;;;19.03;55.75;101114.69;5058460;28;20413;-63
2023/01/05 10:46:53;;;;;;;2.80;1.20;;;;;;;19.04;55.65;101110.63;5074712;28;20406;-63
2023/01/05 10:49:22;;;;;;;2.73;0.87;;;;;;;19.06;56.01;101104.53;5075052;28;20436;-63
2023/01/05 10:51:48;;;;;;;3.60;1.20;;;;;;;19.03;55.83;101116.69;5083503;28;20608;-63
2023/01/05 10:54:42;;;;;;;3.20;0.90;;;;;;;19.00;55.92;101106.81;5095449;28;20465;-63
2023/01/05 10:57:30;;;;;;;2.47;0.80;;;;;;;19.04;55.90;101116.34;5093724;28;20199;-63
2023/01/05 11:00:02;;;;;;;2.13;0.90;;;;;;;19.04;55.68;101110.63;5074054;28;20409;-63
2023/01/05 11:02:30;;;;;;;1.77;0.70;;;;;;;19.07;55.58;101109.88;5074055;28;20974;-63
2023/01/05 11:05:06;;;;;;;3.27;1.00;;;;;;;19.04;55.69;101101.19;5072699;28;20926;-63
2023/01/05 11:07:31;;;;;;;1.50;0.70;;;;;;;19.05;55.92;101095.09;5059718;28;20527;-63
2023/01/05 11:09:57;;;;;;;4.00;1.20;;;;;;;19.06;55.72;101102.50;5055805;28;20456;-63
2023/01/05 11:12:23;;;;;;;2.77;1.10;;;;;;;19.05;55.73;101109.41;5058635;28;20195;-63
2023/01/05 11:14:51;;;;;;;1.70;0.70;;;;;;;19.04;55.80;101093.44;5073046;28;20183;-63
2023/01/05 11:17:19;;;;;;;2.87;0.90;;;;;;;19.06;55.86;101105.34;5073945;28;20402;-63
2023/01/05 11:19:49;;;;;;;1.73;0.80;;;;;;;19.05;55.58;101097.97;5056075;28;20980;-63
2023/01/05 11:22:33;;;;;;;2.50;1.30;;;;;;;19.05;55.71;101106.56;5058676;28;20437;-63
2023/01/05 11:25:26;;;;;;;2.10;0.80;;;;;;;19.07;55.32;101104.16;5073787;28;20409;-63
2023/01/05 11:28:11;;;;;;;2.67;0.93;;;;;;;19.05;55.67;101099.97;5054626;28;20507;-63
2023/01/05 11:30:40;;;;;;;3.40;1.10;;;;;;;19.04;55.76;101101.19;5073483;28;20465;-63
2023/01/05 11:33:13;;;;;;;2.47;1.10;;;;;;;19.03;55.96;101108.97;5058301;28;20448;-63
2023/01/05 11:35:38;;;;;;;2.30;0.80;;;;;;;19.04;55.70;101109.78;5055172;28;20405;-63
2023/01/05 11:38:04;;;;;;;1.70;0.70;;;;;;;19.04;55.57;101104.03;5072156;28;20743;-63
2023/01/05 11:40:31;;;;;;;2.87;0.90;;;;;;;19.05;55.77;101106.56;5088310;28;20781;-63
2023/01/05 11:42:57;;;;;;;1.90;0.80;;;;;;;19.05;55.63;101111.44;5056207;28;20547;-63
2023/01/05 11:45:44;;;;;;;2.57;0.90;;;;;;;19.06;55.72;101115.97;5082413;28;20444;-63
2023/01/05 11:48:14;;;;;;;2.00;0.73;;;;;;;19.04;55.78;101115.50;5070774;28;20413;-63
2023/01/05 11:50:45;;;;;;;2.87;0.97;;;;;;;19.04;55.76;101116.34;5073144;28;20461;-63
2023/01/05 11:53:24;;;;;;;2.57;0.80;;;;;;;19.07;55.86;101109.88;5036607;28;20440;-63
2023/01/05 11:56:19;;;;;;;2.90;1.30;;;;;;;19.06;55.65;101113.13;5055203;28;20417;-63
2023/01/05 11:58:48;;;;;;;3.93;0.90;;;;;;;19.07;55.60;101112.72;5080674;28;20429;-63
2023/01/05 12:01:45;;;;;;;4.50;1.07;;;;;;;19.06;55.64;101113.94;5073009;28;20888;-63
2023/01/05 12:04:15;;;;;;;3.03;1.00;;;;;;;19.07;55.92;101107.00;5077885;28;20452;-63